Date,TemperatureHighF,TemperatureAvgF,TemperatureLowF,DewpointHighF,DewpointAvgF,DewpointLowF,HumidityHigh,HumidityAvg,HumidityLow,PressureMaxIn,PressureMinIn,WindSpeedMaxMPH,WindSpeedAvgMPH,GustSpeedMaxMPH,PrecipitationSumIn
2014-1-1,44.8,34.8,23.0,27.4,22.5,18.3,86,62,42,30.05,29.83,18,6,30,0.00
2014-1-2,46.6,31.8,20.7,28.9,22.5,16.5,86,70,43,30.01,29.57,26,5,37,0.02
2014-1-3,48.0,36.3,24.4,33.8,24.1,13.8,93,64,34,29.74,29.35,30,16,47,8.72
2014-1-4,25.2,17.7,8.2,21.6,12.3,1.7,95,79,60,30.04,29.73,26,11,36,0.21
2014-1-5,14.0,2.1,-4.9,2.9,-8.1,-13.9,81,62,39,30.36,30.05,27,11,38,0.48
2014-1-6,22.1,7.7,-4.5,11.1,-0.4,-10.5,79,69,44,30.21,29.88,4,2,8,0.00
2014-1-7,34.2,24.1,17.8,25.0,18.4,10.7,94,79,54,29.87,29.75,9,2,12,0.00
2014-1-8,46.0,32.6,22.5,33.2,25.7,20.0,97,77,56,29.76,29.55,29,7,40,0.00
2014-1-9,42.3,34.5,28.0,30.3,22.8,11.9,82,63,42,29.58,29.45,23,10,28,0.00
2014-1-10,45.1,35.7,27.5,26.9,21.4,15.5,80,58,40,29.68,29.43,22,8,50,1.07
2014-1-11,51.3,40.9,31.1,34.6,26.7,15.0,91,58,38,29.66,29.16,34,16,56,25.36
2014-1-12,41.4,36.8,29.8,25.3,18.2,13.2,75,49,35,29.69,29.23,26,12,48,11.44
2014-1-13,50.4,41.5,28.2,31.2,24.4,20.6,99,56,34,30.03,29.61,28,13,51,26.09
2014-1-14,50.0,30.7,21.2,44.5,27.0,20.1,100,87,59,30.19,30.02,7,2,11,0.00
2014-1-15,47.7,36.5,21.4,27.1,23.2,19.6,96,62,36,30.07,29.96,15,6,33,0.00
2014-1-16,51.3,34.6,22.1,31.5,22.5,17.9,86,63,39,30.14,30.04,10,3,20,0.00
2014-1-17,49.8,27.4,13.6,27.1,19.1,10.7,94,74,37,30.04,29.93,6,2,12,0.00
2014-1-18,48.6,27.8,14.4,28.0,19.8,11.4,94,74,44,30.06,29.84,7,2,13,0.00
2014-1-19,53.4,35.9,23.7,28.7,23.5,18.8,88,63,37,29.97,29.74,21,4,27,0.00
2014-1-20,52.7,31.4,17.6,26.1,19.9,13.4,87,65,34,30.18,29.97,18,5,24,0.00
2014-1-21,44.1,26.2,13.8,24.8,18.1,10.5,92,74,40,30.10,29.96,6,2,11,0.00
2014-1-22,38.1,27.3,20.1,33.2,24.7,16.7,100,90,77,30.15,29.91,17,4,24,0.07
2014-1-23,42.3,20.4,10.8,32.6,18.0,8.6,100,91,60,30.23,30.14,5,2,8,0.01
2014-1-24,43.0,22.7,8.1,27.6,16.8,6.0,95,79,49,30.19,30.07,4,2,6,0.00
2014-1-25,42.8,22.3,7.7,27.4,16.6,5.7,96,81,49,30.12,29.85,4,2,8,0.00
2014-1-26,36.5,25.2,19.2,33.6,17.8,6.2,100,75,48,30.05,29.78,34,10,52,0.05
2014-1-27,36.1,17.9,2.7,14.8,6.3,-3.9,83,62,37,30.08,29.98,12,3,20,0.00
2014-1-28,27.9,11.9,-2.4,15.9,3.8,-7.4,84,70,44,30.08,29.75,6,2,11,0.00
2014-1-29,43.7,33.7,21.6,33.8,25.6,15.5,92,73,47,29.76,29.26,27,8,52,6.40
2014-1-30,29.5,14.6,10.0,23.2,6.8,1.5,87,71,58,29.70,29.37,28,16,40,1.18
2014-1-31,21.2,13.3,5.9,15.3,7.8,2.2,88,78,63,29.75,29.56,24,7,34,0.02
2014-2-1,24.8,13.6,3.0,11.1,5.3,-2.0,82,70,48,29.87,29.75,18,8,25,0.00
2014-2-2,24.6,12.1,1.9,10.5,5.2,-2.9,83,74,52,29.83,29.65,8,2,11,0.00
2014-2-3,17.2,10.3,2.1,10.0,2.9,-8.4,81,71,55,29.95,29.65,25,19,36,0.37
2014-2-4,4.5,-2.1,-9.6,-6.2,-13.4,-19.5,68,57,44,30.21,29.94,21,17,30,0.00
2014-2-5,-2.6,-9.6,-16.2,-19.0,-21.8,-24.9,63,53,42,30.28,30.16,21,12,27,0.00
2014-2-6,-4.0,-14.4,-25.1,-18.4,-24.0,-31.6,71,60,42,30.16,29.73,17,5,23,0.00
2014-2-7,7.7,-6.8,-16.6,-1.8,-15.1,-24.3,77,66,48,29.74,29.59,6,2,10,0.00
2014-2-8,10.4,5.1,-6.7,3.3,-2.5,-12.0,86,70,55,29.93,29.59,28,15,42,2.85
2014-2-9,26.8,5.2,-4.4,10.8,-2.1,-10.9,83,72,41,29.88,29.79,13,5,17,0.00
2014-2-10,32.4,13.7,2.3,13.7,5.7,-2.8,81,71,41,29.90,29.72,6,2,11,0.00
2014-2-11,47.3,30.8,13.8,31.5,19.3,6.9,96,63,40,29.83,29.57,28,9,43,0.38
2014-2-12,54.5,38.4,14.9,35.8,24.5,7.5,76,59,41,29.79,29.36,37,13,63,0.26
2014-2-13,46.4,38.5,33.3,29.6,22.1,15.8,67,53,39,29.75,29.51,33,12,45,3.94
2014-2-14,45.5,35.6,27.1,35.1,25.0,17.6,89,66,44,29.78,29.48,34,10,49,0.13
2014-2-15,46.4,38.5,29.5,32.7,25.1,17.3,79,60,40,29.77,29.40,24,10,34,0.01
2014-2-16,45.3,39.0,33.4,34.2,21.8,8.2,90,53,28,29.73,29.26,34,13,51,3.05
2014-2-17,53.1,41.6,33.4,32.8,16.5,9.9,90,39,26,29.73,29.38,38,20,52,3.63
2014-2-18,47.3,38.5,30.9,25.2,18.5,10.6,61,46,35,29.74,29.34,29,12,49,0.12
2014-2-19,43.3,32.9,25.7,33.6,18.1,3.8,99,58,28,29.69,29.28,30,12,49,4.07
2014-2-20,39.4,31.0,21.2,27.1,16.3,8.9,85,55,42,29.79,29.54,33,13,41,0.53
2014-2-21,37.4,28.6,20.5,26.5,20.3,13.7,100,73,42,29.74,29.59,20,11,35,0.38
2014-2-22,31.6,19.5,14.9,17.3,11.9,7.3,95,73,46,29.82,29.73,20,6,31,0.00
2014-2-23,16.0,10.5,5.0,12.8,5.8,0.5,88,81,72,29.88,29.79,20,16,29,0.00
2014-2-24,18.7,7.3,2.8,6.9,1.4,-3.4,87,76,51,30.04,29.80,24,11,35,0.07
2014-2-25,23.4,10.5,-5.8,11.1,0.3,-12.6,91,65,37,30.14,29.91,24,12,36,0.52
2014-2-26,15.1,-0.7,-14.8,0.6,-8.8,-20.1,82,68,40,30.03,29.71,6,2,8,0.00
2014-2-27,27.0,12.0,-0.9,24.5,6.7,-4.9,100,79,58,29.71,29.41,32,6,42,1.74
2014-2-28,21.0,8.2,-2.0,17.5,3.1,-7.7,87,79,67,29.85,29.54,30,22,40,2.34
2014-3-1,-2.0,-6.7,-10.7,-7.0,-13.6,-20.2,80,70,60,29.91,29.83,22,15,30,0.02
2014-3-2,21.7,-0.1,-10.8,4.7,-10.0,-20.0,72,62,42,29.88,29.66,14,3,21,0.00
2014-3-3,48.7,23.9,5.5,36.4,15.3,-2.4,97,70,46,29.70,29.54,26,4,36,0.28
2014-3-4,60.6,36.6,25.7,40.5,30.9,24.3,100,81,43,29.74,29.59,10,4,16,0.00
2014-3-5,51.8,41.7,31.3,36.3,30.1,24.8,83,65,48,29.74,29.51,29,15,41,0.00
2014-3-6,48.2,41.9,32.7,42.1,36.7,31.0,97,82,63,29.67,29.40,32,9,47,0.05
2014-3-7,53.2,40.5,32.7,39.2,32.3,27.2,100,75,47,29.96,29.66,21,6,32,0.05
2014-3-8,52.5,41.1,26.8,37.5,30.8,25.5,97,69,42,30.00,29.74,32,11,41,1.04
2014-3-9,61.0,50.4,43.9,40.8,32.1,24.1,76,52,37,29.75,29.66,35,18,44,0.11
2014-3-10,47.3,40.6,34.5,41.2,38.4,33.8,100,92,70,29.70,29.49,20,9,34,0.35
2014-3-11,48.6,37.3,29.3,34.6,29.4,23.7,100,75,46,30.11,29.70,21,10,33,0.14
2014-3-12,52.3,38.1,25.2,33.6,27.8,24.5,100,70,40,30.09,29.85,8,3,10,0.00
2014-3-13,53.8,39.9,25.7,33.5,26.4,21.8,94,64,32,29.84,29.68,30,8,39,0.45
2014-3-14,48.4,37.3,27.7,34.6,27.5,18.9,96,70,41,29.75,29.61,33,6,60,29.81
2014-3-15,54.3,43.9,37.4,29.7,22.8,16.2,66,45,27,30.04,29.73,28,12,47,24.58
2014-3-16,63.3,50.4,34.5,29.1,22.4,7.0,76,40,16,30.02,29.48,27,11,34,0.94
2014-3-17,44.2,37.9,32.2,33.7,28.6,20.0,100,71,42,29.72,29.24,30,16,46,18.22
2014-3-18,46.6,35.5,28.2,30.5,21.8,12.5,91,61,32,29.86,29.72,16,8,26,0.00
2014-3-19,52.9,34.7,20.3,23.5,18.4,12.1,88,56,25,29.87,29.63,22,6,36,0.19
2014-3-20,45.0,35.6,28.0,31.5,18.5,5.3,95,57,27,29.78,29.59,22,11,41,0.98
2014-3-21,33.1,25.3,19.8,14.7,12.6,10.1,74,59,46,30.02,29.93,24,15,36,0.52
2014-3-22,34.2,23.8,14.7,18.7,11.7,6.4,77,61,46,30.10,29.88,19,10,29,0.00
2014-3-23,46.0,31.1,19.8,30.4,20.9,10.4,93,69,27,29.95,29.81,20,7,30,0.01
2014-3-24,33.8,27.7,23.4,21.4,18.1,15.4,82,68,54,30.09,29.94,19,12,28,0.00
2014-3-25,60.8,37.1,19.0,31.6,23.2,15.0,89,62,33,29.97,29.32,26,6,32,0.00
2014-3-26,51.6,44.5,37.8,31.0,26.2,22.6,65,50,38,29.36,29.29,17,8,26,0.00
2014-3-27,44.1,36.0,27.9,35.7,29.8,25.5,100,79,65,29.63,29.39,21,12,30,0.00
2014-3-28,56.5,39.1,27.0,35.5,27.8,18.6,100,72,27,29.77,29.61,22,8,35,0.04
2014-3-29,51.8,43.4,36.1,42.4,34.4,28.6,100,73,43,29.62,29.49,31,12,48,0.20
2014-3-30,47.1,39.2,33.4,35.3,32.2,25.9,100,79,47,29.59,29.50,26,10,41,0.00
2014-3-31,47.3,38.9,27.0,33.3,29.3,23.5,99,71,44,29.79,29.62,13,5,24,0.02
2014-4-1,51.1,37.9,25.0,32.5,28.2,23.3,95,70,44,29.62,29.49,21,8,30,0.00
2014-4-2,53.1,37.9,27.5,32.2,27.5,20.1,95,69,38,29.69,29.53,13,6,20,0.00
2014-4-3,51.6,38.7,24.3,34.5,25.8,19.9,93,64,33,29.81,29.69,12,4,16,0.00
2014-4-4,58.5,45.3,37.4,35.8,27.2,21.4,79,52,29,29.70,29.52,31,16,41,0.00
2014-4-5,53.4,42.9,31.6,36.5,27.4,20.8,96,59,34,29.71,29.63,22,6,36,0.01
2014-4-6,56.5,44.7,35.2,33.7,26.8,22.3,74,53,32,29.88,29.66,25,10,44,3.84
2014-4-7,65.5,49.7,34.3,34.9,30.7,25.5,81,51,33,29.97,29.88,22,8,35,0.00
2014-4-8,73.4,51.1,34.5,38.6,33.4,29.9,85,56,26,29.94,29.69,12,4,17,0.00
2014-4-9,63.9,53.8,43.0,38.8,29.9,19.1,70,43,26,29.78,29.61,28,12,42,0.40
2014-4-10,60.6,46.0,34.3,30.2,22.7,17.1,72,44,22,29.83,29.73,16,5,27,0.00
2014-4-11,66.4,48.3,32.2,36.4,27.1,21.8,70,47,28,29.77,29.51,21,6,30,0.00
2014-4-12,49.5,39.3,27.9,35.5,27.4,17.6,92,64,48,29.90,29.62,32,18,47,33.21
2014-4-13,42.6,32.3,23.5,21.2,11.3,-9.2,81,49,14,30.08,29.90,25,15,37,0.02
2014-4-14,59.2,39.1,16.7,26.5,14.1,8.1,74,42,20,30.08,29.70,17,5,25,0.00
2014-4-15,52.2,44.5,35.4,34.5,24.5,15.7,62,47,35,29.71,29.52,26,9,42,0.63
2014-4-16,49.8,41.8,34.3,33.2,27.5,22.8,68,58,46,29.78,29.68,15,6,33,0.00
2014-4-17,63.7,49.8,34.3,40.7,31.5,25.2,75,53,32,29.76,29.46,25,6,33,0.00
2014-4-18,55.6,47.4,37.2,45.1,32.3,11.1,100,62,23,29.76,29.44,36,11,54,31.97
2014-4-19,67.8,47.6,24.8,42.1,22.6,16.7,73,43,19,29.78,29.59,14,5,25,0.00
2014-4-20,62.2,52.9,41.7,33.5,23.9,15.9,62,37,21,29.97,29.62,39,16,56,26.34
2014-4-21,63.3,45.3,31.3,32.1,23.5,18.7,65,45,27,30.02,29.88,23,7,32,0.00
2014-4-22,73.6,57.9,43.2,45.2,40.5,29.3,100,58,34,29.52,29.23,28,17,46,1.10
2014-4-23,56.7,44.7,36.3,38.4,26.3,19.8,84,51,30,29.65,29.40,24,11,49,2.10
2014-4-24,59.9,45.0,37.0,44.1,37.6,30.2,100,78,44,29.67,29.55,26,8,37,0.20
2014-4-25,64.6,48.1,36.1,44.6,40.1,35.3,100,77,45,29.62,29.38,19,5,28,0.08
2014-4-26,53.1,42.9,37.9,43.6,39.0,33.1,100,87,68,29.45,29.32,28,17,40,1.90
2014-4-27,58.1,44.5,32.7,39.0,30.6,23.5,97,63,33,29.60,29.44,17,8,30,0.12
2014-4-28,53.6,44.4,36.0,32.2,24.5,20.6,81,48,31,30.07,29.59,22,12,39,1.71
2014-4-29,58.3,46.0,30.7,33.0,25.8,20.9,83,49,29,30.28,30.07,19,7,30,0.00
2014-4-30,68.0,48.9,27.7,37.4,28.5,20.8,92,52,21,30.29,30.05,15,4,24,0.00
2014-5-1,72.7,54.3,33.6,47.7,35.4,28.0,82,54,31,30.07,29.80,8,3,12,0.00
2014-5-2,79.2,59.5,43.0,48.0,42.2,37.8,87,58,29,29.81,29.63,21,8,30,0.00
2014-5-3,58.1,50.8,42.3,43.9,40.8,37.1,86,70,56,29.69,29.56,27,15,33,0.11
2014-5-4,59.2,47.4,37.0,47.6,40.7,34.8,100,80,51,29.64,29.55,15,5,33,0.08
2014-5-5,63.0,49.1,38.3,47.3,40.7,34.6,100,75,48,29.66,29.57,20,5,30,0.09
2014-5-6,57.6,45.4,37.6,41.4,34.7,27.9,96,68,37,29.73,29.56,25,13,38,0.08
2014-5-7,51.6,42.6,34.7,35.7,30.0,27.0,78,63,45,29.74,29.65,20,11,27,0.00
2014-5-8,62.4,46.4,26.8,38.0,31.8,25.3,97,62,33,29.73,29.51,18,6,24,0.00
2014-5-9,58.5,47.2,36.5,45.6,36.4,30.3,89,68,39,29.64,29.47,16,6,27,0.05
2014-5-10,56.8,45.7,33.8,42.4,32.6,27.9,94,63,41,29.85,29.61,28,10,41,0.01
2014-5-11,46.9,40.9,36.1,34.8,30.6,27.0,91,68,53,30.09,29.84,26,16,37,0.99
2014-5-12,59.5,45.5,30.9,32.8,25.2,16.4,77,50,23,30.18,30.09,15,7,23,0.00
2014-5-13,65.8,49.2,29.8,36.0,29.7,24.7,83,52,30,30.22,30.06,13,5,17,0.00
2014-5-14,69.4,53.7,32.7,47.0,34.7,27.3,88,53,33,30.15,29.97,15,4,22,0.00
2014-5-15,81.9,60.5,39.4,48.4,41.8,34.7,91,56,27,29.99,29.78,20,6,30,0.00
2014-5-16,68.0,57.7,49.1,48.4,43.5,39.5,90,61,46,29.94,29.77,23,11,33,0.07
2014-5-17,72.9,57.4,44.4,54.5,48.8,43.8,100,77,43,29.81,29.52,18,4,35,0.08
2014-5-18,63.0,50.6,44.6,55.6,48.9,43.0,100,94,72,29.60,29.49,23,4,34,0.11
2014-5-19,64.8,56.0,46.8,47.0,42.7,37.9,97,64,41,29.75,29.64,13,8,26,0.02
2014-5-20,70.7,57.1,37.4,48.4,40.5,28.6,97,59,27,29.82,29.72,12,5,19,0.00
2014-5-21,77.4,61.1,9.7,49.6,42.3,28.8,100,55,22,29.84,29.72,135,7,135,0.00
2014-5-22,80.6,65.1,45.1,53.5,47.9,42.3,100,59,33,29.89,29.76,14,5,30,0.00
2014-5-23,85.1,68.1,46.8,56.6,46.9,38.1,88,52,26,29.87,29.61,21,7,36,0.02
2014-5-24,78.1,67.3,55.2,57.8,49.7,40.1,90,56,39,29.79,29.67,23,12,33,0.07
2014-5-25,75.9,62.3,45.1,57.9,50.6,44.9,100,70,43,29.86,29.65,9,4,15,0.00
2014-5-26,77.2,65.3,50.5,54.4,47.5,43.0,86,55,39,29.80,29.66,26,10,37,0.08
2014-5-27,77.9,64.8,51.4,56.3,44.7,36.8,95,52,32,29.88,29.68,21,7,32,0.00
2014-5-28,81.0,64.1,48.0,59.3,53.3,45.8,100,72,45,29.73,29.49,27,11,40,0.04
2014-5-29,69.4,58.9,49.6,46.8,33.7,28.8,59,42,27,29.88,29.64,29,18,42,0.41
2014-5-30,79.2,62.1,46.6,48.5,36.4,28.2,66,43,21,29.92,29.71,14,6,20,0.00
2014-5-31,71.1,60.5,50.5,56.9,48.4,43.4,93,66,45,29.75,29.65,40,9,62,2.02
2014-6-1,67.6,56.6,49.8,53.6,49.9,46.6,100,80,55,29.83,29.73,15,6,26,0.08
2014-6-2,75.6,60.1,42.3,57.7,49.7,42.0,100,72,41,29.83,29.63,13,5,17,0.00
2014-6-3,78.6,64.3,51.1,54.5,48.2,42.5,87,60,35,29.71,29.56,31,11,48,1.91
2014-6-4,76.1,62.4,46.9,54.6,46.7,38.4,97,62,30,29.79,29.69,19,6,28,0.01
2014-6-5,73.6,59.6,46.0,51.6,45.0,40.0,89,62,36,29.83,29.66,30,10,40,0.46
2014-6-6,51.3,18.5,0.0,42.6,41.3,39.7,80,29,70,29.86,29.76,18,4,27,0.00
2014-6-7,0.0,0.0,0.0,41.5,41.5,41.5,0,0,100,29.88,29.78,0,0,0,0.00
2014-6-8,0.0,0.0,0.0,41.5,41.5,41.5,0,0,100,29.91,29.78,0,0,0,0.00
2014-6-9,82.2,44.6,0.0,51.0,41.4,34.3,78,21,26,29.95,29.72,37,8,54,358.70
2014-6-10,77.4,65.2,50.5,44.7,37.6,31.6,60,37,20,29.97,29.81,27,10,41,0.05
2014-6-11,69.6,58.9,46.6,46.9,41.7,38.3,77,55,33,30.08,29.96,22,10,31,0.00
2014-6-12,79.2,62.2,48.2,55.2,45.0,38.7,78,55,33,30.09,29.69,23,10,30,0.00
2014-6-13,67.6,56.4,49.5,54.1,46.9,37.9,94,72,38,29.91,29.69,28,12,44,0.63
2014-6-14,56.1,50.6,45.9,49.4,45.7,39.3,100,84,57,29.94,29.88,17,6,24,0.02
2014-6-15,68.7,55.0,40.8,50.1,44.3,39.4,97,70,40,29.93,29.71,20,4,33,0.07
2014-6-16,64.8,53.2,46.8,54.8,48.7,45.7,100,86,54,29.80,29.73,18,7,29,0.24
2014-6-17,60.4,51.2,45.7,49.6,44.7,38.2,100,80,53,29.95,29.76,19,7,30,0.26
2014-6-18,62.1,49.8,44.4,48.4,42.1,36.3,100,76,46,29.98,29.88,18,6,28,0.06
2014-6-19,70.9,58.2,47.7,57.2,50.6,45.2,100,78,49,30.01,29.94,10,2,16,0.14
2014-6-20,72.9,60.8,48.9,57.1,50.3,1.2,97,71,10,30.06,29.92,18,4,37,0.18
2014-6-21,81.9,68.0,48.7,58.4,46.9,37.5,100,50,28,30.00,29.90,15,6,22,0.06
2014-6-22,69.3,60.1,50.9,55.2,50.0,44.6,100,70,50,30.08,29.96,22,7,31,0.00
2014-6-23,76.5,60.0,46.8,58.3,51.4,43.0,100,76,32,30.11,30.00,8,3,13,0.00
2014-6-24,81.7,65.0,50.7,60.8,54.8,49.8,100,72,41,30.04,29.87,20,5,34,0.07
2014-6-25,77.9,63.2,54.5,63.1,57.9,54.2,100,85,52,29.96,29.83,15,4,23,0.01
2014-6-26,70.7,60.5,54.9,61.9,58.5,54.4,100,93,70,29.84,29.69,13,3,25,0.21
2014-6-27,72.5,60.5,53.4,60.3,56.2,53.0,100,87,56,29.83,29.73,17,5,30,0.27
2014-6-28,71.4,59.9,50.5,59.6,49.8,41.2,99,73,40,29.92,29.80,22,7,34,0.01
2014-6-29,73.4,60.6,47.5,51.5,44.6,32.1,95,58,32,30.00,29.88,24,10,38,0.04
2014-6-30,72.1,62.1,50.2,53.7,45.5,38.3,83,56,40,30.15,29.99,20,7,36,0.01
2014-7-1,81.3,65.2,46.6,58.2,50.7,40.9,100,64,26,30.20,30.05,11,4,20,0.00
2014-7-2,92.8,76.0,56.8,64.8,55.3,42.8,87,51,27,30.08,29.88,19,8,26,0.00
2014-7-3,86.2,73.4,60.6,70.4,59.6,53.3,88,63,38,29.97,29.85,19,6,28,0.01
2014-7-4,87.8,71.5,57.6,66.8,59.5,52.0,95,68,39,30.01,29.88,15,5,25,0.00
2014-7-5,88.9,72.7,56.5,63.5,56.9,46.3,100,63,30,30.06,29.93,20,6,30,0.00
2014-7-6,91.6,75.6,55.2,59.4,52.2,45.6,83,46,29,30.12,29.94,19,6,29,0.00
2014-7-7,82.6,74.4,65.3,59.6,53.3,45.6,65,48,33,30.14,29.97,23,11,34,0.00
2014-7-8,90.3,75.4,56.1,59.9,54.9,49.2,80,51,31,30.11,29.91,9,4,14,0.00
2014-7-9,88.0,75.7,57.7,62.9,56.8,51.8,82,54,34,29.98,29.82,33,6,51,0.13
2014-7-10,92.3,76.2,44.1,66.7,57.7,35.6,100,59,26,29.93,29.78,23,6,132,0.00
2014-7-11,84.0,74.1,63.5,60.9,56.5,42.9,75,55,33,30.14,29.93,27,13,40,0.47
2014-7-12,90.9,75.9,59.7,65.1,59.2,51.1,91,59,33,30.23,30.11,14,5,22,0.00
2014-7-13,95.7,77.8,59.0,61.4,54.6,48.3,72,47,29,30.27,30.13,16,5,25,0.00
2014-7-14,88.5,77.1,66.4,64.3,56.5,48.6,60,49,39,30.26,30.05,19,7,26,0.00
2014-7-15,74.7,66.5,58.5,64.3,59.4,35.6,100,80,51,30.15,29.58,20,5,54,361.10
2014-7-16,82.2,67.8,56.5,67.7,61.2,31.8,99,82,51,29.92,29.77,10,4,57,0.00
2014-7-17,91.6,75.2,57.0,65.7,59.2,44.1,100,63,28,29.82,29.59,17,3,24,0.00
2014-7-18,82.0,71.6,61.2,59.6,52.9,42.4,73,53,29,29.79,29.68,19,10,27,0.00
2014-7-19,90.3,72.3,56.3,62.3,53.7,48.0,85,54,33,29.79,29.65,18,6,28,0.00
2014-7-20,88.2,75.6,57.4,61.6,53.9,47.6,83,49,28,29.73,29.59,22,8,33,0.00
2014-7-21,79.7,69.4,61.3,66.9,60.0,51.7,100,73,51,29.91,29.64,22,9,32,0.09
2014-7-22,85.8,70.5,44.1,67.8,61.3,35.6,100,74,44,30.01,29.54,18,4,57,0.07
2014-7-23,90.7,73.4,60.8,67.0,61.6,43.6,99,69,37,29.95,29.65,23,7,38,0.17
2014-7-24,77.2,68.3,59.0,62.2,51.2,37.4,94,58,30,29.82,29.66,38,16,55,6.63
2014-7-25,87.4,65.4,47.3,51.3,43.9,38.1,74,47,27,29.85,29.71,26,8,38,0.01
2014-7-26,87.4,69.0,51.6,51.3,45.1,38.2,68,44,26,29.97,29.83,13,4,18,0.14
2014-7-27,91.8,71.7,49.8,54.8,47.0,7.9,83,45,10,30.07,29.91,7,3,20,0.00
2014-7-28,88.9,73.7,55.9,66.8,55.5,43.7,78,54,38,30.00,29.86,15,4,20,0.00
2014-7-29,99.5,74.7,57.6,65.5,56.4,33.4,78,55,10,29.97,29.87,20,4,32,0.00
2014-7-30,95.9,75.2,57.9,66.2,55.9,15.1,90,54,10,29.97,29.85,13,4,19,0.00
2014-7-31,95.2,74.8,55.8,59.7,52.7,45.0,75,48,24,29.96,29.85,23,5,35,0.00
2014-8-1,96.1,75.5,57.0,64.2,52.7,46.9,75,48,24,29.96,29.83,19,4,29,0.00
2014-8-2,85.3,71.9,61.5,65.1,57.1,51.3,90,61,38,29.95,29.84,17,5,30,0.01
2014-8-3,88.7,71.9,56.5,62.7,57.0,-61.3,100,63,36,29.93,29.79,15,4,21,0.05
2014-8-4,83.7,73.3,68.0,63.1,57.8,53.4,74,59,44,29.89,29.82,22,11,31,0.00
2014-8-5,84.2,72.0,60.1,62.9,58.7,54.0,92,65,40,29.88,29.76,10,5,16,0.00
2014-8-6,90.1,73.4,57.7,64.8,57.9,49.4,92,61,29,29.85,29.72,23,6,32,0.00
2014-8-7,90.9,74.1,54.9,61.0,54.1,46.3,88,53,23,29.85,29.69,22,5,30,0.00
2014-8-8,86.5,71.0,59.0,62.3,56.2,50.3,100,63,31,29.85,29.72,40,7,55,0.61
2014-8-9,82.8,69.5,55.0,62.9,57.0,50.0,100,69,35,29.96,29.81,13,4,19,0.01
2014-8-10,90.5,74.3,55.8,60.1,52.3,41.7,88,50,22,30.01,29.88,12,4,17,0.00
2014-8-11,96.3,75.8,56.1,58.5,51.9,43.7,76,46,23,30.01,29.83,11,3,17,0.00
2014-8-12,102.4,77.4,60.3,66.3,58.1,49.2,79,53,34,29.88,29.74,24,6,35,0.01
2014-8-13,89.1,75.0,61.5,63.8,59.9,48.9,95,62,27,29.87,29.69,23,8,41,0.02
2014-8-14,83.1,70.4,61.0,68.9,62.5,56.5,100,78,47,29.84,29.72,11,4,19,0.00
2014-8-15,81.0,69.5,44.1,66.1,60.0,35.6,92,73,47,29.99,29.67,29,6,54,359.70
2014-8-16,82.6,68.3,56.5,63.9,57.1,31.8,100,71,41,30.01,29.92,18,7,57,0.00
2014-8-17,95.2,69.8,53.8,59.8,54.4,50.2,97,61,33,30.03,29.55,19,6,28,0.00
2014-8-18,86.4,71.7,54.0,60.6,54.4,44.0,92,57,34,29.61,29.40,9,4,14,0.00
2014-8-19,84.0,68.8,0.0,58.3,51.5,44.9,80,55,35,29.68,29.28,20,4,27,0.00
2014-8-20,77.9,67.0,57.4,63.2,57.7,43.8,100,73,46,30.09,29.95,17,4,30,0.09
2014-8-21,62.6,58.0,55.4,56.9,53.8,51.7,96,86,75,30.19,30.09,23,12,32,0.04
2014-8-22,69.1,59.8,53.2,59.6,54.7,50.6,100,85,60,30.23,30.16,20,10,28,0.41
2014-8-23,64.9,50.3,47.1,64.7,48.9,46.3,100,95,86,30.27,30.17,30,23,43,5.68
2014-8-24,59.7,51.7,45.9,49.8,46.5,36.6,100,84,64,30.30,30.22,19,10,27,0.17
2014-8-25,69.1,56.2,41.7,57.4,47.2,41.5,100,74,47,30.31,30.17,8,4,12,0.00
2014-8-26,78.6,62.1,46.0,59.5,52.9,45.6,100,75,46,30.31,30.20,6,3,13,0.00
2014-8-27,77.7,58.9,49.8,61.3,54.3,49.6,100,86,50,30.29,30.23,5,2,8,0.00
2014-8-28,86.0,69.5,51.1,59.5,54.0,46.1,100,63,33,30.24,30.05,22,6,28,0.00
2014-8-29,67.3,60.4,50.0,60.0,55.0,49.7,99,83,57,30.23,30.14,24,6,30,1.00
2014-8-31,70.3,59.2,50.4,56.9,49.9,43.9,99,75,44,30.10,30.00,19,7,27,0.00
2014-9-1,71.1,61.0,48.6,48.7,44.1,40.0,83,55,39,30.17,30.08,11,5,15,0.00
2014-9-2,83.5,63.0,47.3,52.8,46.2,41.6,93,58,29,30.11,29.85,23,7,30,0.09
2014-9-3,68.5,58.3,48.7,47.5,41.4,34.8,89,57,30,30.19,29.83,30,13,37,1.15
2014-9-4,66.2,54.1,44.1,45.0,41.4,38.3,84,64,43,30.33,30.20,17,6,20,0.00
2014-9-5,71.2,55.3,38.3,48.3,41.6,35.4,94,64,30,30.42,30.31,7,3,9,0.00
2014-9-6,60.1,48.0,38.7,45.0,38.6,35.0,90,71,55,30.41,30.35,8,4,14,0.00
2014-9-7,84.9,62.3,41.7,49.4,41.1,35.3,84,50,20,30.19,29.99,13,4,19,0.00
2014-9-8,83.5,63.4,43.9,49.0,41.3,33.6,79,48,20,30.05,29.90,28,7,37,0.39
2014-9-9,56.5,47.8,39.6,44.8,36.5,34.4,83,65,52,30.26,30.05,29,20,39,0.46
2014-9-10,53.2,42.8,37.8,41.9,37.4,33.7,95,82,62,30.45,30.23,22,12,36,0.20
2014-9-11,57.6,42.1,35.6,36.2,31.6,27.6,94,68,38,30.56,30.45,20,11,29,0.00
2014-9-12,66.9,47.1,28.6,39.8,32.4,25.9,100,62,27,30.50,30.16,25,11,35,0.01
2014-9-13,63.9,49.5,40.6,40.9,35.3,26.7,79,59,36,30.37,30.18,23,9,34,0.00
2014-9-14,73.8,52.5,34.5,46.4,39.1,32.5,94,64,34,30.26,30.19,11,4,17,0.00
2014-9-15,78.3,56.5,36.1,52.1,42.8,35.1,100,63,32,30.30,30.16,8,3,14,0.00
2014-9-16,81.0,61.6,42.6,59.3,46.7,34.5,93,61,35,30.23,30.07,16,3,22,0.00
2014-9-17,86.2,67.0,50.2,61.3,54.0,47.5,100,66,33,30.13,29.97,16,5,29,0.01
2014-9-18,72.5,63.4,54.7,64.2,55.6,42.3,96,76,57,30.02,29.91,32,13,46,0.38
2014-9-19,67.5,57.8,53.8,57.3,55.0,52.6,100,91,70,30.15,29.99,31,4,46,0.00
2014-9-20,79.5,65.0,43.7,58.7,49.3,43.4,99,59,36,30.38,30.23,14,3,18,0.00
2014-9-21,78.3,61.5,45.0,59.8,51.0,43.5,100,71,45,30.38,30.16,11,4,18,0.00
2014-9-22,76.1,63.2,52.3,61.0,55.4,48.1,95,77,55,30.17,30.10,28,10,39,0.00
2014-9-23,82.2,61.8,47.7,60.9,55.7,47.4,100,83,40,30.23,30.10,24,4,37,0.20
2014-9-24,91.9,74.7,56.1,62.5,55.5,46.6,95,55,29,30.17,30.01,26,13,37,0.00
2014-9-25,93.6,73.7,53.2,60.3,51.8,43.3,75,50,24,30.12,29.92,26,10,42,0.11
2014-9-26,71.8,65.5,59.9,54.5,49.6,-15.8,68,57,43,30.19,29.91,24,13,74,0.00
2014-9-27,60.3,51.8,15.4,55.8,50.9,15.3,100,97,68,30.31,30.17,100,11,100,0.63
2014-9-28,58.3,53.3,51.3,49.8,47.3,45.5,88,80,66,30.31,30.19,28,6,39,0.04
2014-9-29,61.3,53.7,42.4,54.1,49.1,42.2,100,85,68,30.19,29.92,20,8,27,0.00
2014-9-30,62.4,54.1,49.5,54.1,46.6,34.0,100,78,47,30.06,29.92,22,8,34,0.01
2014-10-1,61.7,48.7,42.8,45.3,38.7,30.7,100,70,39,30.18,30.06,14,6,21,0.05
2014-10-2,50.5,42.0,31.1,37.6,33.2,27.8,97,71,53,30.54,30.15,27,12,38,1.02
2014-10-3,63.1,41.8,27.0,38.8,32.4,25.6,96,72,37,30.55,30.34,10,3,14,0.00
2014-10-4,73.8,55.5,39.4,47.8,42.1,35.1,100,65,37,30.35,30.17,19,6,110,0.00
2014-10-5,74.5,59.4,0.0,50.5,45.3,40.6,88,59,34,30.26,30.12,14,5,23,0.00
2014-10-6,77.4,60.0,1.6,52.1,46.9,-9.3,93,65,40,30.15,30.01,29,6,99,0.00
2014-10-7,79.0,63.7,50.4,57.2,51.4,25.7,95,66,44,30.15,30.06,16,3,51,0.00
2014-10-8,74.7,55.3,41.9,53.7,47.3,41.6,100,77,41,30.16,30.08,8,3,11,0.00
2014-10-9,68.7,57.7,49.5,50.3,47.1,44.4,84,69,51,30.24,30.14,15,8,23,0.00
2014-10-10,69.4,54.1,37.6,52.2,46.5,31.4,100,78,51,30.26,30.10,7,3,9,0.00
2014-10-11,72.7,51.7,43.5,50.7,45.2,38.3,100,81,43,30.12,29.89,31,6,43,0.46
2014-10-12,57.9,49.1,16.9,42.6,37.1,8.4,91,64,42,30.30,29.98,14,8,25,0.06
2014-10-13,65.7,49.7,33.8,44.6,37.7,31.7,100,66,40,30.30,30.10,33,10,44,0.00
2014-10-14,73.4,61.2,53.2,46.9,40.3,34.0,66,47,32,30.11,29.92,33,24,42,0.32
2014-10-15,77.7,59.1,45.3,46.1,39.1,33.0,69,50,22,30.09,29.71,27,12,44,1.33
2014-10-16,58.3,49.5,38.5,40.8,35.5,30.4,77,60,40,30.27,30.09,10,4,14,0.00
2014-10-17,62.8,45.5,27.3,42.7,33.3,26.2,100,66,37,30.26,30.09,26,8,56,0.00
2014-10-18,71.1,53.0,0.0,45.7,38.5,-11.8,80,58,10,30.19,30.11,11,4,100,0.00
2014-10-19,71.1,52.1,35.2,50.2,41.0,34.3,100,68,10,30.24,30.08,23,7,30,0.00
2014-10-20,73.6,55.0,37.4,51.4,40.4,34.5,91,61,36,30.11,29.91,27,8,36,0.00
2014-10-21,65.7,53.6,47.8,50.8,43.0,37.2,81,68,49,29.92,29.83,19,8,26,0.02
2014-10-22,61.2,48.8,34.0,43.4,38.3,33.7,100,71,42,30.20,30.09,21,9,29,0.09
2014-10-23,67.5,57.1,50.0,46.2,39.3,34.3,79,52,39,30.09,30.00,32,15,36,0.32
2014-10-24,54.3,49.6,41.5,46.7,43.7,40.0,100,81,64,30.24,30.09,14,7,20,0.01
2014-10-25,65.5,48.0,36.0,53.0,38.7,-13.7,100,78,10,30.22,29.83,17,3,21,0.00
2014-10-26,61.7,50.2,41.2,45.5,35.8,28.1,74,58,38,30.03,29.82,24,9,36,0.67
2014-10-27,52.7,43.5,31.1,30.9,26.6,23.9,78,52,35,30.26,30.04,14,6,25,0.00
2014-10-28,56.7,40.0,24.1,36.8,28.1,21.1,93,65,34,30.30,30.15,20,3,34,0.00
2014-10-29,62.6,50.4,41.0,42.9,35.9,28.2,78,58,45,30.36,30.13,22,8,30,0.00
2014-10-30,59.7,44.3,32.7,43.0,35.9,30.3,100,74,43,30.39,30.19,21,7,28,0.00
2014-10-31,64.6,48.6,36.5,48.0,37.7,32.3,91,67,42,30.19,29.90,16,6,24,0.00
2014-11-1,69.1,45.8,35.2,52.6,40.7,33.2,100,85,46,29.91,29.65,24,6,34,0.09
2014-11-2,47.3,39.9,34.5,40.3,34.2,23.3,100,82,56,30.17,29.80,15,8,27,0.04
2014-11-3,50.9,38.1,27.9,35.3,28.9,22.3,85,70,48,30.31,30.17,11,4,19,0.00
2014-11-4,57.0,45.6,33.4,43.0,35.4,31.0,97,69,45,30.30,30.11,24,9,33,0.02
2014-11-5,55.9,47.9,0.0,43.4,38.1,34.7,91,68,49,30.45,30.26,12,4,21,0.00
2014-11-6,63.3,50.7,9.0,44.1,38.0,-3.1,89,64,43,30.42,30.05,70,15,70,0.79
2014-11-7,61.0,48.9,31.5,44.9,34.7,28.4,92,59,39,30.46,30.06,26,9,38,0.19
2014-11-8,54.5,38.8,27.5,41.0,32.6,26.8,100,80,50,30.45,30.11,7,2,17,0.00
2014-11-9,61.5,39.0,17.4,46.0,32.3,7.7,100,78,46,30.12,29.66,78,14,100,10.55
2014-11-10,22.1,14.7,6.6,14.5,5.9,-5.0,94,68,56,30.49,29.96,28,18,45,0.57
2014-11-11,9.1,5.2,-0.8,-0.3,-6.0,-10.7,74,59,47,30.65,30.48,21,15,35,0.02
2014-11-12,18.5,5.9,-1.8,4.7,-3.4,-8.2,82,65,48,30.66,30.52,12,6,19,0.00
2014-11-13,16.3,4.1,-9.0,1.7,-4.5,-14.2,82,68,47,30.52,30.17,13,5,18,0.00
2014-11-14,15.1,9.6,0.0,5.0,-0.2,-4.4,88,65,47,30.30,30.13,26,15,38,0.22
2014-11-15,16.3,8.1,1.4,2.9,-1.5,-6.5,77,64,52,30.48,30.29,23,9,35,0.02
2014-11-16,29.7,11.7,0.3,13.8,2.8,-5.4,85,68,42,30.59,30.47,5,2,10,0.05
2014-11-17,28.8,12.2,-1.7,13.9,4.8,-5.7,88,73,48,30.56,30.38,9,2,12,0.00
2014-11-18,30.4,17.6,7.2,17.6,11.8,2.8,91,78,54,30.38,30.26,5,1,7,0.00
2014-11-19,43.9,21.1,8.8,27.9,16.2,6.9,100,83,52,30.31,30.13,4,2,7,0.00
2014-11-20,43.9,28.0,14.5,30.8,23.2,12.9,100,83,54,30.15,30.03,9,2,16,0.00
2014-11-21,46.2,35.9,23.2,32.5,27.7,-10.4,97,74,10,30.07,29.75,36,6,36,0.00
2014-11-22,51.6,43.1,23.9,38.4,26.5,-22.9,85,53,11,29.92,29.56,43,19,126,17.49
2014-11-23,42.8,36.8,27.1,28.0,21.4,9.6,80,54,40,30.15,29.91,23,10,72,0.60
2014-11-24,43.5,37.8,34.7,23.4,19.8,14.5,57,48,35,30.32,30.03,22,12,39,1.45
2014-11-25,39.9,33.7,29.5,35.0,25.9,3.3,100,77,32,30.28,30.03,21,6,27,0.20
2014-11-26,44.2,29.7,22.5,42.2,22.0,3.3,100,77,32,30.28,30.20,97,2,94,0.09
2014-11-27,55.6,42.6,23.7,41.1,34.6,23.5,100,75,54,30.21,29.93,38,10,48,0.04
2014-11-28,59.4,52.2,46.8,39.3,34.3,26.6,66,51,35,29.94,29.53,38,16,59,13.26
2014-11-29,51.6,7.1,-1.1,33.2,0.5,-8.1,83,75,47,30.14,29.51,37,31,53,16.98
2014-11-30,-1.1,-1.1,-1.1,-5.9,-5.9,-5.9,79,79,79,30.32,30.14,33,33,42,0.00
2014-12-1,0.0,0.0,0.0,-5.9,-5.9,-5.9,0,0,100,30.34,30.06,0,0,0,0.00
2014-12-2,0.0,0.0,0.0,-5.9,-5.9,-5.9,0,0,100,30.22,30.11,0,0,0,0.00
2014-12-3,0.0,0.0,0.0,-5.9,-5.9,-5.9,0,0,100,30.21,30.03,0,0,0,0.00
2014-12-4,0.0,0.0,0.0,-5.9,-5.9,-5.9,0,0,100,30.14,29.97,0,0,0,0.00
2014-12-5,0.0,0.0,0.0,-5.9,-5.9,-5.9,0,0,100,30.30,30.14,0,0,0,0.00
2014-12-6,0.0,0.0,0.0,-5.9,-5.9,-5.9,0,0,100,30.29,30.15,0,0,0,0.00
2014-12-7,0.0,0.0,0.0,-5.9,-5.9,-5.9,0,0,100,30.42,30.23,0,0,0,0.00
2014-12-8,0.0,0.0,0.0,-5.9,-5.9,-5.9,0,0,100,30.39,30.27,0,0,0,0.00
2014-12-9,0.0,0.0,0.0,-5.9,-5.9,-5.9,0,0,100,30.29,30.14,0,0,0,0.00
2014-12-10,0.0,0.0,0.0,-5.9,-5.9,-5.9,0,0,100,30.22,29.93,0,0,0,0.00
2014-12-11,0.0,0.0,0.0,-5.9,-5.9,-5.9,0,0,100,29.94,29.84,0,0,0,0.00
2014-12-12,0.0,0.0,0.0,-5.9,-5.9,-5.9,0,0,100,29.92,29.83,0,0,0,0.00
2014-12-13,0.0,0.0,0.0,-5.9,-5.9,-5.9,0,0,100,30.17,29.86,0,0,0,0.00
2014-12-14,0.0,0.0,0.0,-5.9,-5.9,-5.9,0,0,100,30.34,30.16,0,0,0,0.00
2014-12-15,0.0,0.0,0.0,-5.9,-5.9,-5.9,0,0,100,30.35,30.23,0,0,0,0.00
2014-12-16,32.0,9.4,0.0,27.7,4.2,-5.9,100,30,77,30.24,30.11,229,5,229,0.00
2014-12-17,44.4,26.8,15.6,34.7,25.0,15.4,100,94,61,30.14,30.05,3,0,7,0.07
2014-12-18,37.6,26.3,15.4,31.3,23.0,15.3,100,88,63,30.18,30.11,6,1,10,0.00
2014-12-19,95.9,33.7,22.6,34.6,28.7,20.2,96,83,56,30.13,30.00,19,3,99,0.00
2014-12-20,43.5,34.6,27.9,33.5,28.5,24.3,100,79,55,30.11,29.79,26,8,40,0.00
2014-12-21,50.7,41.7,35.6,37.8,29.9,22.8,100,64,46,29.94,29.64,26,15,48,7.49
2014-12-22,42.6,37.4,30.4,30.5,25.4,21.8,90,62,48,30.33,29.91,24,12,36,0.09
2014-12-23,43.2,31.8,21.2,30.6,23.6,19.2,95,73,49,30.41,30.07,20,4,30,0.00
2014-12-24,43.5,37.7,30.9,33.8,25.7,-8.4,100,64,17,30.07,29.61,31,20,47,9.06
2014-12-25,34.2,24.1,10.8,29.6,18.9,8.2,94,80,64,30.15,29.72,22,13,36,0.00
2014-12-26,29.3,17.5,7.3,22.6,14.5,5.4,96,88,66,30.30,30.15,7,2,9,0.00
2014-12-27,30.9,21.1,8.1,20.9,15.3,6.5,96,79,58,30.28,30.01,28,11,38,0.00
2014-12-28,27.7,20.2,11.7,25.9,15.9,5.6,100,83,71,30.41,29.97,34,17,48,2.53
2014-12-29,11.7,4.6,-4.7,6.0,-3.7,-13.6,79,67,58,30.77,30.41,23,18,34,0.02
2014-12-30,1.9,-4.8,-11.7,-8.6,-13.2,-19.4,76,66,58,30.82,30.65,19,9,27,0.00
2014-12-31,19.6,2.8,-5.3,4.1,-5.9,-11.8,79,67,43,30.66,30.38,6,2,11,0.00
2015-1-1,25.0,5.8,-3.6,8.7,-1.7,-9.0,84,72,44,30.39,30.24,5,2,8,0.00
2015-1-2,23.2,11.8,0.5,21.8,7.7,-3.6,100,83,70,30.25,29.99,33,3,46,2.29